Time;durP1;ratioP1;P1;durP2;ratioP2;P2;SDS_P1;SDS_P2;PMS_P1;PMS_P2;Temp;Humidity;BMP_temperature;BMP_pressure;BME280_temperature;BME280_humidity;BME280_pressure;Samples;Min_cycle;Max_cycle;Signal;HPM_P1;HPM_P2
2021/06/03 00:02:00;;;;;;;6.93;4.40;;;16.80;68.50;;;;;;5078024;28;20051;-82
2021/06/03 00:04:26;;;;;;;8.55;4.85;;;16.90;68.40;;;;;;5096201;28;20035;-85
2021/06/03 00:06:52;;;;;;;6.07;3.90;;;17.00;68.10;;;;;;5096110;28;20103;-82
2021/06/03 00:09:18;;;;;;;5.60;3.95;;;17.00;68.00;;;;;;5096141;28;20078;-82
2021/06/03 00:11:44;;;;;;;6.35;4.35;;;16.80;68.10;;;;;;5096082;28;20469;-84
2021/06/03 00:14:10;;;;;;;7.00;4.07;;;16.80;68.40;;;;;;5095814;28;20039;-84
2021/06/03 00:16:36;;;;;;;5.20;4.05;;;16.80;68.50;;;;;;5096338;28;20028;-85
2021/06/03 00:19:04;;;;;;;6.88;4.22;;;16.80;68.60;;;;;;5095832;28;20389;-83
2021/06/03 00:21:31;;;;;;;7.38;4.10;;;16.70;68.60;;;;;;5095833;28;20024;-83
2021/06/03 00:23:57;;;;;;;4.13;3.42;;;16.70;68.90;;;;;;5095858;28;20059;-83
2021/06/03 00:26:22;;;;;;;4.40;3.60;;;16.70;68.80;;;;;;5095513;28;20473;-83
2021/06/03 00:28:48;;;;;;;4.55;3.60;;;16.80;68.70;;;;;;5095995;28;20023;-83
2021/06/03 00:31:13;;;;;;;7.25;3.85;;;16.80;68.60;;;;;;5095476;28;20054;-84
2021/06/03 00:33:39;;;;;;;4.18;3.25;;;16.80;68.60;;;;;;5094220;28;20491;-85
2021/06/03 00:36:08;;;;;;;5.13;3.72;;;16.80;68.40;;;;;;5095684;28;20052;-83
2021/06/03 00:38:33;;;;;;;4.57;3.45;;;16.80;68.50;;;;;;5095379;28;20085;-83
2021/06/03 00:40:59;;;;;;;4.97;3.42;;;16.70;68.50;;;;;;5095387;28;20028;-81
2021/06/03 00:43:25;;;;;;;4.85;3.40;;;16.80;68.60;;;;;;5077178;28;20028;-84
2021/06/03 00:45:51;;;;;;;9.15;3.50;;;16.60;68.50;;;;;;5095441;28;20499;-83
2021/06/03 00:48:16;;;;;;;5.82;3.38;;;16.60;68.60;;;;;;5095031;28;20028;-83
2021/06/03 00:50:46;;;;;;;6.63;3.42;;;16.70;68.80;;;;;;5077929;28;20131;-81
2021/06/03 00:53:13;;;;;;;5.25;3.63;;;16.70;68.80;;;;;;5093633;28;20056;-83
2021/06/03 00:55:40;;;;;;;4.60;3.28;;;16.60;68.90;;;;;;5093541;28;20016;-83
2021/06/03 00:58:07;;;;;;;4.57;3.60;;;16.50;69.30;;;;;;5094763;28;20020;-83
2021/06/03 01:00:32;;;;;;;4.05;3.20;;;16.50;69.60;;;;;;5094816;28;20376;-83
2021/06/03 01:02:58;;;;;;;7.95;3.95;;;16.50;69.50;;;;;;5094892;28;20031;-83
2021/06/03 01:05:30;;;;;;;4.97;3.35;;;16.50;69.30;;;;;;5094910;28;20028;-83
2021/06/03 01:07:59;;;;;;;4.32;3.60;;;16.50;69.40;;;;;;5094684;28;20078;-83
2021/06/03 01:10:31;;;;;;;3.38;2.92;;;16.60;69.20;;;;;;5093308;28;20488;-82
2021/06/03 01:13:38;;;;;;;4.53;3.58;;;16.60;69.10;;;;;;5094771;28;20030;-83
2021/06/03 01:16:05;;;;;;;5.22;3.10;;;16.60;68.80;;;;;;5094614;28;20480;-83
2021/06/03 01:18:33;;;;;;;5.03;3.17;;;16.60;68.70;;;;;;5093318;28;20377;-83
2021/06/03 01:21:01;;;;;;;5.25;3.17;;;16.70;68.70;;;;;;5094377;28;20089;-81
2021/06/03 01:23:34;;;;;;;5.20;3.38;;;16.70;68.70;;;;;;5097525;28;20028;-83
2021/06/03 01:26:01;;;;;;;3.25;2.63;;;16.60;68.70;;;;;;5096974;28;20032;-83
2021/06/03 01:28:27;;;;;;;4.55;2.85;;;16.70;68.80;;;;;;5113569;28;20016;-82
2021/06/03 01:30:56;;;;;;;4.15;3.08;;;16.80;68.60;;;;;;5112783;28;20031;-82
2021/06/03 01:33:25;;;;;;;5.88;3.35;;;16.80;68.50;;;;;;5094362;28;20032;-82
2021/06/03 01:35:54;;;;;;;4.40;3.20;;;16.90;68.40;;;;;;5094307;28;20020;-82
2021/06/03 01:38:25;;;;;;;3.47;2.88;;;16.90;68.10;;;;;;5094637;28;20024;-85
2021/06/03 01:40:51;;;;;;;3.28;2.92;;;16.90;68.20;;;;;;5098536;28;20043;-85
2021/06/03 01:43:18;;;;;;;3.72;2.60;;;16.90;67.90;;;;;;5079829;28;20070;-85
2021/06/03 01:45:45;;;;;;;5.45;2.97;;;16.90;67.70;;;;;;5094626;28;20029;-84
2021/06/03 01:48:12;;;;;;;5.75;2.97;;;16.90;67.70;;;;;;5093979;28;20042;-84
2021/06/03 01:50:40;;;;;;;3.35;3.00;;;16.90;67.80;;;;;;5093995;28;20054;-83
2021/06/03 01:53:07;;;;;;;3.45;2.90;;;16.90;67.80;;;;;;5093710;28;20040;-83
2021/06/03 01:55:33;;;;;;;3.13;2.55;;;16.90;68.10;;;;;;5075767;28;20032;-83
2021/06/03 01:58:00;;;;;;;3.00;2.70;;;16.90;68.30;;;;;;5094083;28;20485;-83
2021/06/03 02:00:26;;;;;;;4.35;2.70;;;16.90;68.30;;;;;;5094148;28;20031;-83
2021/06/03 02:02:52;;;;;;;4.90;3.00;;;16.90;68.20;;;;;;5093051;28;20105;-85
2021/06/03 02:05:18;;;;;;;3.75;2.78;;;16.90;68.30;;;;;;5094051;28;20471;-85
2021/06/03 02:07:44;;;;;;;5.55;2.92;;;16.90;68.40;;;;;;5093733;28;20122;-84
2021/06/03 02:10:11;;;;;;;5.43;3.20;;;16.80;68.50;;;;;;5093637;28;20024;-83
2021/06/03 02:12:45;;;;;;;5.15;3.05;;;16.80;68.50;;;;;;5093535;28;20565;-82
2021/06/03 02:15:11;;;;;;;5.55;2.92;;;16.90;68.50;;;;;;5093462;28;20024;-83
2021/06/03 02:17:45;;;;;;;4.82;2.90;;;16.80;68.50;;;;;;5092179;28;20051;-83
2021/06/03 02:20:19;;;;;;;4.35;3.55;;;16.80;68.50;;;;;;5092012;28;20024;-82
2021/06/03 02:22:49;;;;;;;5.38;3.08;;;16.70;68.80;;;;;;5093303;28;20046;-83
2021/06/03 02:25:15;;;;;;;3.30;2.90;;;16.70;69.10;;;;;;5093278;28;20016;-83
2021/06/03 02:27:43;;;;;;;9.93;3.60;;;16.70;69.00;;;;;;5093088;28;20032;-82
2021/06/03 02:30:10;;;;;;;5.75;4.32;;;16.70;69.00;;;;;;5093211;28;20024;-83
2021/06/03 02:32:36;;;;;;;17.48;10.00;;;16.70;68.80;;;;;;5093175;28;20032;-82
2021/06/03 02:35:04;;;;;;;15.25;10.10;;;16.80;68.90;;;;;;5093091;28;20081;-82
2021/06/03 02:37:30;;;;;;;13.20;8.35;;;16.80;69.00;;;;;;5092976;28;20020;-83
2021/06/03 02:40:00;;;;;;;11.52;7.43;;;16.80;69.00;;;;;;5097068;28;20032;-82
2021/06/03 02:42:26;;;;;;;15.80;9.63;;;16.80;69.00;;;;;;5094739;28;20046;-82
2021/06/03 02:44:52;;;;;;;12.40;7.85;;;16.70;69.20;;;;;;5094329;28;20035;-82
2021/06/03 02:47:18;;;;;;;11.25;7.03;;;16.70;69.30;;;;;;5094748;28;20552;-82
2021/06/03 02:49:43;;;;;;;10.02;5.32;;;16.70;69.60;;;;;;5092240;28;20027;-83
2021/06/03 02:52:09;;;;;;;6.00;4.60;;;16.60;69.80;;;;;;5074955;28;20040;-81
2021/06/03 02:54:34;;;;;;;7.00;4.35;;;16.60;70.10;;;;;;5075896;28;20028;-84
2021/06/03 02:57:00;;;;;;;6.03;4.45;;;16.50;70.10;;;;;;5092593;28;20169;-83
2021/06/03 02:59:27;;;;;;;5.65;4.20;;;16.50;70.50;;;;;;5092577;28;20044;-84
2021/06/03 03:01:52;;;;;;;6.68;4.22;;;16.50;70.50;;;;;;5076309;28;20054;-84
2021/06/03 03:04:18;;;;;;;6.10;4.22;;;16.60;70.50;;;;;;5076058;28;20505;-83
2021/06/03 03:06:43;;;;;;;7.10;3.95;;;16.60;70.60;;;;;;5093927;28;20043;-85
2021/06/03 03:09:09;;;;;;;4.18;2.95;;;16.60;70.70;;;;;;5093281;28;20042;-85
2021/06/03 03:11:35;;;;;;;4.22;3.08;;;16.60;70.60;;;;;;5094166;28;20103;-84
2021/06/03 03:14:00;;;;;;;3.20;2.88;;;16.70;70.60;;;;;;5093933;28;20027;-84
2021/06/03 03:16:26;;;;;;;4.57;3.05;;;16.60;70.50;;;;;;5099737;28;20025;-83
2021/06/03 03:18:52;;;;;;;3.75;3.10;;;16.60;70.40;;;;;;5100068;28;20088;-83
2021/06/03 03:21:18;;;;;;;5.70;2.97;;;16.70;70.40;;;;;;5100268;28;20028;-83
2021/06/03 03:23:43;;;;;;;6.35;3.05;;;16.70;70.50;;;;;;5100222;28;20506;-84
2021/06/03 03:26:09;;;;;;;4.57;3.30;;;16.70;70.30;;;;;;5100394;28;20077;-83
2021/06/03 03:28:35;;;;;;;4.38;3.00;;;16.70;70.40;;;;;;5100106;28;20107;-83
2021/06/03 03:31:01;;;;;;;3.85;3.30;;;16.70;70.40;;;;;;5100412;28;20112;-84
2021/06/03 03:33:27;;;;;;;4.05;3.05;;;16.70;70.40;;;;;;5100345;28;20380;-82
2021/06/03 03:35:53;;;;;;;3.28;2.60;;;16.70;70.30;;;;;;5100028;28;20421;-82
2021/06/03 03:38:20;;;;;;;6.05;2.70;;;16.80;70.20;;;;;;5099803;28;20032;-82
2021/06/03 03:40:47;;;;;;;6.47;2.88;;;16.70;70.40;;;;;;5100175;28;20024;-82
2021/06/03 03:43:13;;;;;;;4.25;3.00;;;16.70;70.50;;;;;;5102936;28;20036;-82
2021/06/03 03:45:39;;;;;;;4.22;2.63;;;16.70;70.70;;;;;;5104874;28;20024;-82
2021/06/03 03:48:05;;;;;;;7.90;3.17;;;16.60;70.60;;;;;;5103344;28;20097;-82
2021/06/03 03:50:33;;;;;;;4.22;2.80;;;16.70;70.90;;;;;;5100189;28;20028;-81
2021/06/03 03:52:59;;;;;;;3.95;2.88;;;16.60;70.90;;;;;;5099985;28;20086;-83
2021/06/03 03:55:25;;;;;;;4.18;2.88;;;16.60;71.00;;;;;;5100425;28;20027;-84
2021/06/03 03:57:51;;;;;;;4.10;3.13;;;16.50;71.30;;;;;;5100354;28;20360;-83
2021/06/03 04:00:27;;;;;;;3.50;2.65;;;16.50;71.70;;;;;;5099922;28;20031;-80
2021/06/03 04:02:52;;;;;;;5.07;2.90;;;16.50;71.80;;;;;;5099393;28;20048;-81
2021/06/03 04:05:18;;;;;;;3.00;2.72;;;16.50;71.70;;;;;;5099394;28;20055;-81
2021/06/03 04:07:45;;;;;;;4.05;2.85;;;16.50;71.70;;;;;;5099063;28;20046;-82
2021/06/03 04:10:15;;;;;;;3.33;2.47;;;16.60;71.70;;;;;;5099020;28;20476;-81
2021/06/03 04:12:41;;;;;;;6.65;3.05;;;16.50;72.00;;;;;;5099327;28;20023;-81
2021/06/03 04:15:08;;;;;;;4.10;2.78;;;16.60;71.90;;;;;;5099193;28;20031;-81
2021/06/03 04:17:34;;;;;;;4.70;2.60;;;16.50;72.10;;;;;;5080921;28;20370;-81
2021/06/03 04:20:00;;;;;;;4.53;2.95;;;16.60;71.90;;;;;;5099178;28;20077;-81
2021/06/03 04:22:26;;;;;;;4.22;2.72;;;16.60;72.10;;;;;;5099091;28;20032;-81
2021/06/03 04:24:52;;;;;;;2.63;1.65;;;16.60;72.00;;;;;;5098974;28;20135;-81
2021/06/03 04:27:17;;;;;;;6.95;2.60;;;16.70;71.70;;;;;;5096920;28;20043;-82
2021/06/03 04:29:43;;;;;;;4.72;3.10;;;16.80;71.60;;;;;;5097326;28;20024;-86
2021/06/03 04:32:09;;;;;;;4.55;2.78;;;16.80;71.40;;;;;;5096196;28;20028;-86
2021/06/03 04:34:35;;;;;;;4.70;2.70;;;16.80;71.20;;;;;;5096680;28;20024;-86
2021/06/03 04:37:02;;;;;;;5.18;3.17;;;16.90;71.10;;;;;;5096433;28;20105;-85
2021/06/03 04:39:28;;;;;;;3.05;2.47;;;16.90;71.10;;;;;;5097773;28;20032;-85
2021/06/03 04:41:54;;;;;;;3.22;2.80;;;17.00;70.90;;;;;;5096437;28;20034;-87
2021/06/03 04:44:19;;;;;;;3.10;2.60;;;17.00;70.70;;;;;;5096337;28;20048;-86
2021/06/03 04:46:45;;;;;;;6.22;2.80;;;17.10;70.70;;;;;;5096901;28;20032;-86
2021/06/03 04:49:11;;;;;;;3.47;2.47;;;17.20;70.50;;;;;;5111287;28;20111;-86
2021/06/03 04:51:39;;;;;;;2.88;2.58;;;17.20;70.20;;;;;;5080264;28;20059;-86
2021/06/03 04:54:06;;;;;;;2.95;2.45;;;17.30;70.20;;;;;;5096031;28;20040;-81
2021/06/03 04:56:32;;;;;;;3.10;2.55;;;17.40;69.90;;;;;;5096575;28;20024;-81
2021/06/03 04:58:58;;;;;;;4.10;2.75;;;17.40;69.70;;;;;;5096010;28;20537;-82
2021/06/03 05:01:24;;;;;;;6.78;2.65;;;17.50;69.50;;;;;;5095739;28;20046;-86
2021/06/03 05:03:50;;;;;;;2.95;2.15;;;17.50;69.30;;;;;;5096307;28;20376;-85
2021/06/03 05:06:15;;;;;;;6.55;3.13;;;17.60;69.20;;;;;;5079508;28;20024;-82
2021/06/03 05:08:41;;;;;;;3.40;2.55;;;17.60;69.40;;;;;;5095782;28;20028;-83
2021/06/03 05:11:06;;;;;;;3.55;2.67;;;17.70;69.30;;;;;;5098045;28;20016;-82
2021/06/03 05:13:32;;;;;;;3.05;2.75;;;17.70;69.10;;;;;;5096458;28;20511;-84
2021/06/03 05:16:01;;;;;;;3.70;2.50;;;17.80;68.90;;;;;;5094818;28;20099;-83
2021/06/03 05:18:26;;;;;;;3.97;3.10;;;17.90;68.90;;;;;;5094903;28;20020;-82
2021/06/03 05:20:53;;;;;;;2.70;2.50;;;17.90;68.70;;;;;;5096308;28;20078;-82
2021/06/03 05:23:20;;;;;;;4.32;2.75;;;18.00;68.50;;;;;;5100694;28;20111;-84
2021/06/03 05:25:46;;;;;;;5.20;2.75;;;18.00;68.20;;;;;;5098477;28;20028;-84
2021/06/03 05:28:13;;;;;;;3.58;2.70;;;18.10;68.00;;;;;;5098009;28;20028;-85
2021/06/03 05:30:39;;;;;;;3.28;2.60;;;18.20;67.80;;;;;;5098341;28;20024;-85
2021/06/03 05:33:05;;;;;;;2.60;2.40;;;18.20;67.50;;;;;;5096427;28;20126;-83
2021/06/03 05:35:31;;;;;;;4.13;2.30;;;18.30;67.40;;;;;;5096507;28;20020;-81
2021/06/03 05:37:57;;;;;;;3.50;2.55;;;18.40;67.40;;;;;;5094778;28;20054;-81
2021/06/03 05:40:25;;;;;;;4.47;2.33;;;18.40;67.40;;;;;;5097663;28;20100;-82
2021/06/03 05:42:53;;;;;;;4.30;2.25;;;18.50;67.40;;;;;;5094542;28;20095;-83
2021/06/03 05:45:20;;;;;;;3.10;2.80;;;18.60;67.10;;;;;;5094921;28;20526;-81
2021/06/03 05:47:45;;;;;;;5.47;2.60;;;18.60;66.60;;;;;;5094549;28;20073;-82
2021/06/03 05:50:13;;;;;;;2.90;2.60;;;18.70;65.90;;;;;;5095359;28;20074;-82
2021/06/03 05:52:41;;;;;;;3.85;2.90;;;18.60;65.60;;;;;;5094695;28;20237;-82
2021/06/03 05:55:09;;;;;;;3.50;2.80;;;18.70;65.80;;;;;;5094533;28;20020;-82
2021/06/03 05:57:35;;;;;;;15.63;3.30;;;18.50;66.00;;;;;;5094492;28;20020;-82
2021/06/03 06:00:04;;;;;;;3.22;2.75;;;18.30;67.00;;;;;;5093164;28;20115;-82
2021/06/03 06:02:45;;;;;;;5.88;3.40;;;18.40;67.10;;;;;;5094375;28;20016;-84
2021/06/03 06:07:57;;;;;;;2.90;2.30;;;18.50;66.90;;;;;;5094148;28;20130;-85
2021/06/03 06:10:22;;;;;;;4.00;2.42;;;18.70;66.70;;;;;;5093950;28;20476;-84
2021/06/03 06:12:48;;;;;;;3.30;2.65;;;18.80;66.50;;;;;;5094428;28;20020;-84
2021/06/03 06:15:14;;;;;;;3.35;2.92;;;19.00;66.70;;;;;;5094354;28;20025;-86
2021/06/03 06:17:39;;;;;;;3.38;2.42;;;19.10;66.80;;;;;;5094241;28;20043;-86
2021/06/03 06:20:06;;;;;;;5.47;2.47;;;19.20;66.60;;;;;;5094050;28;20085;-84
2021/06/03 06:22:32;;;;;;;5.97;3.00;;;19.40;66.20;;;;;;5093873;28;20109;-86
2021/06/03 06:25:02;;;;;;;4.95;3.47;;;19.40;64.80;;;;;;5093590;28;20095;-81
2021/06/03 06:27:28;;;;;;;3.75;2.30;;;19.70;64.60;;;;;;5093817;28;20062;-83
2021/06/03 06:29:54;;;;;;;4.13;2.60;;;19.80;63.20;;;;;;5093680;28;20430;-82
2021/06/03 06:32:19;;;;;;;6.45;3.08;;;19.90;62.70;;;;;;5092560;28;20464;-83
2021/06/03 06:34:45;;;;;;;4.75;3.30;;;20.00;62.90;;;;;;5075814;28;20047;-83
2021/06/03 06:37:10;;;;;;;4.80;3.20;;;19.90;63.10;;;;;;5093597;28;20047;-83
2021/06/03 06:39:36;;;;;;;5.22;3.65;;;19.90;63.20;;;;;;5093357;28;20020;-83
2021/06/03 06:42:03;;;;;;;8.05;4.05;;;19.90;63.50;;;;;;5093256;28;20020;-83
2021/06/03 06:44:29;;;;;;;7.18;4.72;;;19.90;63.80;;;;;;5093256;28;20027;-86
2021/06/03 06:46:54;;;;;;;10.77;5.13;;;19.80;64.00;;;;;;5093536;28;20032;-84
2021/06/03 06:49:20;;;;;;;6.88;4.72;;;19.80;64.50;;;;;;5092581;28;20052;-83
2021/06/03 06:51:46;;;;;;;5.57;4.30;;;19.70;64.60;;;;;;5092272;28;20031;-83
2021/06/03 06:54:11;;;;;;;4.88;3.15;;;19.70;64.60;;;;;;5095104;28;20036;-84
2021/06/03 06:56:39;;;;;;;4.20;2.83;;;19.80;64.50;;;;;;5097012;28;20035;-82
2021/06/03 06:59:05;;;;;;;3.63;3.03;;;19.80;64.20;;;;;;5093795;28;20062;-86
2021/06/03 07:01:31;;;;;;;3.67;2.92;;;19.80;64.00;;;;;;5093990;28;20074;-83
2021/06/03 07:03:57;;;;;;;3.17;2.17;;;19.90;62.90;;;;;;5093017;28;20023;-83
2021/06/03 07:06:23;;;;;;;4.20;2.17;;;20.00;62.00;;;;;;5093996;28;20526;-89
2021/06/03 07:08:48;;;;;;;3.28;2.42;;;20.10;62.00;;;;;;5093636;28;20027;-87
2021/06/03 07:11:14;;;;;;;4.85;2.35;;;20.30;62.10;;;;;;5096239;28;20526;-87
2021/06/03 07:13:40;;;;;;;4.13;2.05;;;20.40;60.70;;;;;;5094434;28;20020;-86
2021/06/03 07:16:06;;;;;;;3.22;1.88;;;20.60;60.00;;;;;;5092727;28;20024;-85
2021/06/03 07:18:31;;;;;;;2.78;1.88;;;20.60;59.80;;;;;;5094964;28;20081;-87
2021/06/03 07:20:57;;;;;;;3.38;2.30;;;20.80;59.60;;;;;;5093332;28;20089;-79
2021/06/03 07:23:23;;;;;;;3.90;2.20;;;21.00;59.60;;;;;;5093756;28;20024;-84
2021/06/03 07:25:49;;;;;;;3.53;1.90;;;21.20;59.20;;;;;;5093930;28;20020;-85
2021/06/03 07:28:14;;;;;;;21.98;4.78;;;21.30;59.00;;;;;;5093140;28;20032;-83
2021/06/03 07:30:40;;;;;;;5.90;2.30;;;21.40;58.10;;;;;;5092016;28;20055;-78
2021/06/03 07:33:06;;;;;;;8.20;2.25;;;21.70;57.50;;;;;;5092845;28;20024;-78
2021/06/03 07:35:33;;;;;;;11.82;2.30;;;21.90;55.90;;;;;;5093879;28;20024;-81
2021/06/03 07:37:59;;;;;;;10.05;4.00;;;22.20;54.30;;;;;;5093530;28;20027;-80
2021/06/03 07:40:28;;;;;;;2.70;1.90;;;22.40;53.50;;;;;;5093070;28;20056;-81
2021/06/03 07:42:56;;;;;;;5.82;1.88;;;22.50;50.80;;;;;;5074754;28;20107;-80
2021/06/03 07:45:26;;;;;;;4.18;1.83;;;22.50;50.30;;;;;;5092905;28;20031;-80
2021/06/03 07:47:53;;;;;;;4.65;1.75;;;22.60;50.00;;;;;;5092454;28;20032;-81
2021/06/03 07:50:20;;;;;;;3.88;1.65;;;22.90;50.10;;;;;;5099650;28;20084;-81
2021/06/03 07:52:45;;;;;;;2.70;1.48;;;23.10;50.00;;;;;;5101884;28;20108;-81
2021/06/03 07:55:13;;;;;;;3.58;1.67;;;23.30;50.00;;;;;;5103641;28;20031;-81
2021/06/03 07:57:40;;;;;;;2.75;1.70;;;23.40;50.30;;;;;;5104797;28;20098;-82
2021/06/03 08:00:10;;;;;;;2.88;1.50;;;23.50;49.30;;;;;;5113054;28;20028;-81
2021/06/03 08:02:35;;;;;;;3.10;1.50;;;23.70;49.70;;;;;;5114577;28;20040;-81
2021/06/03 08:05:01;;;;;;;2.45;1.52;;;23.70;48.60;;;;;;5111252;28;20047;-80
2021/06/03 08:07:27;;;;;;;3.35;2.03;;;23.70;48.10;;;;;;5098640;28;20419;-80
2021/06/03 08:09:52;;;;;;;4.60;1.80;;;23.50;48.30;;;;;;5098965;28;20027;-80
2021/06/03 08:12:18;;;;;;;5.68;2.05;;;22.90;49.60;;;;;;5096822;28;20494;-79
2021/06/03 08:14:43;;;;;;;6.15;2.00;;;22.70;50.80;;;;;;5096964;28;20012;-79
2021/06/03 08:17:09;;;;;;;3.25;2.08;;;22.50;51.10;;;;;;5096626;28;20111;-80
2021/06/03 08:19:35;;;;;;;3.15;1.85;;;22.50;50.20;;;;;;5095944;28;20421;-80
2021/06/03 08:22:01;;;;;;;3.40;1.75;;;22.80;50.60;;;;;;5097062;28;20055;-80
2021/06/03 08:24:27;;;;;;;3.50;1.52;;;22.90;51.60;;;;;;5096581;28;20024;-80
2021/06/03 08:26:53;;;;;;;4.07;1.90;;;22.90;51.90;;;;;;5094871;28;20036;-80
2021/06/03 08:29:19;;;;;;;3.58;2.20;;;22.90;51.10;;;;;;5096219;28;20107;-80
2021/06/03 08:31:45;;;;;;;3.45;1.77;;;22.80;50.30;;;;;;5096558;28;20066;-79
2021/06/03 08:34:11;;;;;;;3.88;2.15;;;22.80;50.20;;;;;;5077729;28;20381;-79
2021/06/03 08:36:37;;;;;;;5.32;2.25;;;22.60;50.40;;;;;;5096028;28;20020;-79
2021/06/03 08:39:06;;;;;;;4.28;2.13;;;22.20;51.30;;;;;;5095777;28;20024;-79
2021/06/03 08:41:35;;;;;;;4.28;1.95;;;22.00;51.90;;;;;;5096113;28;20024;-79
2021/06/03 08:44:05;;;;;;;6.07;1.90;;;21.90;51.70;;;;;;5077842;28;20031;-79
2021/06/03 08:46:31;;;;;;;4.47;2.28;;;21.60;52.90;;;;;;5095746;28;20464;-79
2021/06/03 08:48:56;;;;;;;3.15;1.75;;;21.50;53.90;;;;;;5095205;28;20054;-81
2021/06/03 08:51:22;;;;;;;3.17;1.73;;;21.50;53.50;;;;;;5093742;28;20020;-81
2021/06/03 08:53:49;;;;;;;3.03;2.20;;;21.70;53.00;;;;;;5094398;28;20048;-80
2021/06/03 08:56:18;;;;;;;4.47;1.60;;;22.10;53.10;;;;;;5095279;28;20121;-82
2021/06/03 08:58:58;;;;;;;2.25;1.77;;;22.40;50.50;;;;;;5095289;28;20028;-80
2021/06/03 09:01:26;;;;;;;3.47;1.85;;;22.70;49.20;;;;;;5095536;28;20049;-77
2021/06/03 09:03:52;;;;;;;3.85;1.58;;;23.10;49.00;;;;;;5095781;28;20020;-78
2021/06/03 09:06:19;;;;;;;4.28;1.50;;;23.40;48.10;;;;;;5094984;28;20024;-77
2021/06/03 09:08:55;;;;;;;3.00;1.40;;;23.50;46.50;;;;;;5095497;28;20038;-85
2021/06/03 09:11:22;;;;;;;2.53;1.55;;;23.50;45.70;;;;;;5095861;28;20020;-80
2021/06/03 09:13:58;;;;;;;3.70;1.83;;;23.50;45.90;;;;;;5095785;28;20027;-81
2021/06/03 09:16:34;;;;;;;2.88;1.73;;;23.40;47.00;;;;;;5095707;28;20028;-82
2021/06/03 09:19:12;;;;;;;4.20;1.50;;;23.20;46.30;;;;;;5095208;28;20024;-77
2021/06/03 09:21:44;;;;;;;2.22;1.33;;;23.10;47.60;;;;;;5095506;28;20021;-79
2021/06/03 09:24:13;;;;;;;3.63;1.70;;;23.20;47.40;;;;;;5093820;28;20020;-79
2021/06/03 09:26:53;;;;;;;4.97;1.80;;;23.30;47.10;;;;;;5095509;28;20030;-77
2021/06/03 09:29:24;;;;;;;3.03;1.60;;;23.20;46.90;;;;;;5096661;28;20036;-78
2021/06/03 09:31:51;;;;;;;3.20;1.60;;;23.10;46.80;;;;;;5096762;28;20107;-78
2021/06/03 09:34:18;;;;;;;5.07;1.48;;;23.00;46.30;;;;;;5095335;28;20035;-78
2021/06/03 09:36:46;;;;;;;2.60;1.17;;;23.20;46.60;;;;;;5094853;28;20530;-77
2021/06/03 09:39:30;;;;;;;2.92;1.70;;;23.30;45.90;;;;;;5095071;28;20024;-77
2021/06/03 09:42:06;;;;;;;3.17;1.60;;;23.40;44.50;;;;;;5094415;28;20035;-77
2021/06/03 09:44:55;;;;;;;2.42;1.35;;;23.40;45.50;;;;;;5094233;28;20349;-77
2021/06/03 09:47:26;;;;;;;4.80;2.30;;;23.50;46.30;;;;;;5093767;28;20035;-77
2021/06/03 09:49:55;;;;;;;3.70;2.22;;;23.40;46.90;;;;;;5094351;28;20042;-78
2021/06/03 09:52:29;;;;;;;3.08;1.63;;;23.40;47.10;;;;;;5092964;28;20572;-77
2021/06/03 09:55:00;;;;;;;5.15;3.55;;;23.50;47.10;;;;;;5091340;28;20022;-77
2021/06/03 09:57:36;;;;;;;2.92;2.03;;;23.80;48.20;;;;;;5093193;28;20054;-77
2021/06/03 10:00:09;;;;;;;2.55;1.40;;;24.10;46.80;;;;;;5091325;28;20400;-77
2021/06/03 10:02:36;;;;;;;2.53;1.50;;;24.30;43.60;;;;;;5090989;28;20025;-78
2021/06/03 10:05:10;;;;;;;2.20;1.80;;;24.40;44.20;;;;;;5090614;28;20031;-77
2021/06/03 10:07:35;;;;;;;4.00;1.98;;;24.60;42.70;;;;;;5093634;28;20131;-77
2021/06/03 10:10:04;;;;;;;2.30;1.73;;;24.70;42.80;;;;;;5093895;28;20055;-79
2021/06/03 10:12:47;;;;;;;1.67;1.50;;;24.80;42.20;;;;;;5094017;28;20024;-78
2021/06/03 10:15:33;;;;;;;3.15;1.30;;;24.90;41.70;;;;;;5094036;28;20039;-79
2021/06/03 10:18:00;;;;;;;;;;;25.00;41.50;;;;;;5094239;28;20033;-80
2021/06/03 10:20:39;;;;;;;1.35;1.25;;;24.70;41.10;;;;;;5093531;28;19950;-80
2021/06/03 10:23:11;;;;;;;3.33;1.85;;;24.60;41.10;;;;;;5093565;28;20031;-81
2021/06/03 10:25:37;;;;;;;2.38;1.73;;;24.70;41.50;;;;;;5093556;28;20383;-77
2021/06/03 10:28:05;;;;;;;2.03;1.50;;;24.50;41.80;;;;;;5093309;28;20119;-77
2021/06/03 10:30:37;;;;;;;3.95;1.50;;;24.30;42.00;;;;;;5093437;28;20077;-79
2021/06/03 10:33:14;;;;;;;4.53;1.70;;;24.20;42.60;;;;;;5093515;28;20023;-77
2021/06/03 10:35:44;;;;;;;2.22;1.40;;;24.10;43.60;;;;;;5093381;28;20036;-76
2021/06/03 10:38:11;;;;;;;4.90;2.45;;;24.10;43.00;;;;;;5092249;28;20060;-74
2021/06/03 10:40:41;;;;;;;4.55;1.75;;;24.40;44.10;;;;;;5093457;28;20020;-74
2021/06/03 10:43:07;;;;;;;4.38;2.35;;;24.70;43.40;;;;;;5093121;28;20165;-78
2021/06/03 10:45:35;;;;;;;4.75;1.60;;;24.80;42.70;;;;;;5093279;28;20094;-78
2021/06/03 10:48:00;;;;;;;3.72;1.73;;;24.80;42.60;;;;;;5093022;28;20036;-78
2021/06/03 10:50:35;;;;;;;3.38;1.83;;;24.70;42.90;;;;;;5091745;28;20046;-77
2021/06/03 10:53:20;;;;;;;2.33;1.80;;;24.70;43.30;;;;;;5093190;28;20186;-83
2021/06/03 10:55:49;;;;;;;1.90;1.70;;;24.80;43.00;;;;;;5092672;28;20028;-83
2021/06/03 10:58:15;;;;;;;2.83;1.65;;;24.70;42.70;;;;;;5091714;28;20027;-83
2021/06/03 11:00:46;;;;;;;5.90;1.52;;;24.80;42.20;;;;;;5074949;28;20020;-84
2021/06/03 11:03:19;;;;;;;1.98;1.10;;;24.60;42.30;;;;;;5093367;28;20020;-84
2021/06/03 11:05:59;;;;;;;6.07;1.40;;;24.10;42.00;;;;;;5092077;28;20111;-83
2021/06/03 11:08:39;;;;;;;3.80;1.30;;;23.60;42.50;;;;;;5092966;28;20032;-82
2021/06/03 11:11:14;;;;;;;2.00;1.50;;;23.60;42.40;;;;;;5092943;28;20476;-82
2021/06/03 11:13:48;;;;;;;1.85;1.67;;;23.60;43.10;;;;;;5092971;28;20069;-82
2021/06/03 11:16:24;;;;;;;2.60;2.00;;;23.40;44.90;;;;;;5092843;28;20031;-81
2021/06/03 11:18:49;;;;;;;1.40;1.20;;;23.50;46.30;;;;;;5092849;28;20028;-82
2021/06/03 11:21:42;;;;;;;2.08;1.00;;;23.80;44.30;;;;;;5074718;28;20035;-82
2021/06/03 11:24:36;;;;;;;1.42;1.00;;;24.30;40.80;;;;;;5092396;28;20032;-82
2021/06/03 11:27:03;;;;;;;1.83;1.15;;;24.30;41.20;;;;;;5092728;28;20036;-83
2021/06/03 11:29:30;;;;;;;3.15;1.20;;;24.00;42.30;;;;;;5074758;28;20020;-82
2021/06/03 11:32:02;;;;;;;2.47;1.40;;;24.10;43.20;;;;;;5091755;28;20032;-83
2021/06/03 11:34:54;;;;;;;4.32;1.00;;;24.10;43.80;;;;;;5092952;28;20059;-83
2021/06/03 11:37:28;;;;;;;2.13;1.10;;;24.20;43.90;;;;;;5095618;28;20021;-82
2021/06/03 11:39:58;;;;;;;4.57;1.30;;;24.30;44.60;;;;;;5096960;28;20020;-83
2021/06/03 11:42:45;;;;;;;1.80;1.33;;;24.40;45.00;;;;;;5096970;28;20025;-82
2021/06/03 11:45:20;;;;;;;1.95;1.20;;;24.70;44.20;;;;;;5096804;28;20495;-83
2021/06/03 11:47:46;;;;;;;1.67;1.13;;;25.00;43.20;;;;;;5097035;28;20062;-83
2021/06/03 11:50:18;;;;;;;2.80;1.13;;;24.40;42.50;;;;;;5078732;28;20472;-83
2021/06/03 11:52:52;;;;;;;5.35;0.90;;;24.00;43.10;;;;;;5078542;28;20051;-83
2021/06/03 11:55:27;;;;;;;1.67;1.00;;;24.00;42.10;;;;;;5096487;28;20066;-83
2021/06/03 11:58:15;;;;;;;1.55;0.90;;;23.80;42.10;;;;;;5078402;28;20024;-84
2021/06/03 12:00:47;;;;;;;3.05;1.00;;;23.90;42.10;;;;;;5096607;28;20456;-84
2021/06/03 12:03:23;;;;;;;2.53;1.00;;;23.90;42.40;;;;;;5095190;28;20119;-83
2021/06/03 12:05:48;;;;;;;1.45;1.20;;;24.00;42.40;;;;;;5078545;28;20471;-83
2021/06/03 12:08:40;;;;;;;1.50;1.20;;;24.10;42.70;;;;;;5096206;28;20074;-84
2021/06/03 12:11:08;;;;;;;3.65;1.35;;;24.40;43.10;;;;;;5078140;28;20090;-84
2021/06/03 12:13:34;;;;;;;2.33;1.27;;;24.50;43.50;;;;;;5098003;28;20082;-84
2021/06/03 12:16:00;;;;;;;3.53;1.48;;;24.80;43.90;;;;;;5099909;28;20025;-83
2021/06/03 12:18:38;;;;;;;1.90;1.50;;;24.60;44.50;;;;;;5101392;28;20040;-84
2021/06/03 12:21:06;;;;;;;4.30;1.45;;;24.60;44.70;;;;;;5100617;28;20050;-84
2021/06/03 12:23:31;;;;;;;1.83;1.30;;;24.70;43.30;;;;;;5098702;28;20028;-84
2021/06/03 12:25:57;;;;;;;3.30;1.77;;;25.00;43.70;;;;;;5100966;28;20127;-83
2021/06/03 12:28:23;;;;;;;3.40;1.20;;;25.40;41.80;;;;;;5098632;28;20089;-83
2021/06/03 12:30:49;;;;;;;1.98;1.38;;;25.70;39.70;;;;;;5098176;28;20080;-83
2021/06/03 12:33:28;;;;;;;2.97;1.15;;;26.00;39.70;;;;;;5097072;28;20051;-83
2021/06/03 12:36:03;;;;;;;6.38;1.20;;;26.30;39.40;;;;;;5097830;28;20476;-83
2021/06/03 12:38:28;;;;;;;3.63;1.42;;;26.40;38.70;;;;;;5080782;28;20051;-83
2021/06/03 12:40:56;;;;;;;3.33;1.55;;;26.40;38.90;;;;;;5084804;28;20039;-83
2021/06/03 12:43:22;;;;;;;2.75;1.30;;;26.40;37.40;;;;;;5101503;28;20069;-83
2021/06/03 12:45:48;;;;;;;1.85;1.42;;;26.20;38.30;;;;;;5081971;28;20024;-83
2021/06/03 12:48:15;;;;;;;2.38;1.30;;;26.00;37.80;;;;;;5098624;28;20464;-82
2021/06/03 12:50:45;;;;;;;2.53;1.13;;;26.00;37.40;;;;;;5094629;28;20535;-83
2021/06/03 12:53:13;;;;;;;3.47;1.13;;;25.90;36.70;;;;;;5095269;28;20078;-83
2021/06/03 12:55:39;;;;;;;1.80;1.35;;;25.80;35.00;;;;;;5077395;28;20024;-83